Time;durP1;ratioP1;P1;durP2;ratioP2;P2;SDS_P1;SDS_P2;PMS_P1;PMS_P2;Temp;Humidity;BMP_temperature;BMP_pressure;BME280_temperature;BME280_humidity;BME280_pressure;Samples;Min_cycle;Max_cycle;Signal;HPM_P1;HPM_P2
2022/09/16 00:01:18;;;;;;;2.33;0.52;;;23.40;45.80;;;;;;5048447;28;20429;-51
2022/09/16 00:03:45;;;;;;;1.38;0.52;;;23.40;45.80;;;;;;5030645;28;20381;-51
2022/09/16 00:06:23;;;;;;;0.77;0.40;;;23.40;45.90;;;;;;5044006;28;20040;-49
2022/09/16 00:08:50;;;;;;;1.38;0.60;;;23.40;45.90;;;;;;5045795;28;20029;-52
2022/09/16 00:11:17;;;;;;;1.10;0.50;;;23.40;45.90;;;;;;5044594;28;20384;-51
2022/09/16 00:13:42;;;;;;;1.08;0.60;;;23.40;45.90;;;;;;5044236;28;20025;-51
2022/09/16 00:16:12;;;;;;;0.95;0.30;;;23.40;45.90;;;;;;5045586;28;20098;-49
2022/09/16 00:18:38;;;;;;;0.80;0.40;;;23.40;45.90;;;;;;5046806;28;20112;-51
2022/09/16 00:21:08;;;;;;;1.02;0.32;;;23.40;45.90;;;;;;5048332;28;20112;-52
2022/09/16 00:23:35;;;;;;;1.17;0.50;;;23.40;45.90;;;;;;5042101;28;20025;-49
2022/09/16 00:26:00;;;;;;;3.42;0.68;;;23.40;45.90;;;;;;5047891;28;20025;-53
2022/09/16 00:28:26;;;;;;;0.75;0.40;;;23.40;45.90;;;;;;5046688;28;20069;-49
2022/09/16 00:30:52;;;;;;;1.10;0.40;;;23.40;45.90;;;;;;5047638;28;20771;-51
2022/09/16 00:33:19;;;;;;;0.95;0.35;;;23.40;45.90;;;;;;5045464;28;20033;-50
2022/09/16 00:35:46;;;;;;;0.68;0.28;;;23.40;45.90;;;;;;5047847;28;20447;-49
2022/09/16 00:38:12;;;;;;;0.60;0.30;;;23.40;45.90;;;;;;5042674;28;20033;-52
2022/09/16 00:40:46;;;;;;;0.60;0.32;;;23.30;45.80;;;;;;5046275;28;20033;-51
2022/09/16 00:43:15;;;;;;;1.38;0.32;;;23.40;45.80;;;;;;5042124;28;20057;-52
2022/09/16 00:45:44;;;;;;;2.30;0.40;;;23.30;45.80;;;;;;5048162;28;20044;-49
2022/09/16 00:48:15;;;;;;;1.42;0.43;;;23.30;45.80;;;;;;5044008;28;20048;-47
2022/09/16 00:50:53;;;;;;;0.93;0.40;;;23.30;45.80;;;;;;5044519;28;20122;-51
2022/09/16 00:53:26;;;;;;;1.48;0.50;;;23.30;45.80;;;;;;5037884;28;20042;-47
2022/09/16 00:55:56;;;;;;;1.15;0.40;;;23.30;45.80;;;;;;5047788;28;20034;-49
2022/09/16 00:58:37;;;;;;;1.38;0.50;;;23.30;45.80;;;;;;5036306;28;20345;-49
2022/09/16 01:01:04;;;;;;;0.98;0.40;;;23.30;45.80;;;;;;5047556;28;20091;-49
2022/09/16 01:03:34;;;;;;;1.00;0.45;;;23.30;45.80;;;;;;5043225;28;20100;-46
2022/09/16 01:06:00;;;;;;;0.93;0.45;;;23.30;45.80;;;;;;5042773;28;20022;-51
2022/09/16 01:08:25;;;;;;;1.15;0.38;;;23.30;45.80;;;;;;5046737;28;20045;-50
2022/09/16 01:10:51;;;;;;;1.17;0.60;;;23.30;45.90;;;;;;5046116;28;20448;-51
2022/09/16 01:13:17;;;;;;;1.58;0.52;;;23.30;45.90;;;;;;5043820;28;20428;-53
2022/09/16 01:15:58;;;;;;;1.08;0.40;;;23.30;45.90;;;;;;5045316;28;20025;-48
2022/09/16 01:18:24;;;;;;;0.85;0.30;;;23.30;45.90;;;;;;5047451;28;20041;-49
2022/09/16 01:21:19;;;;;;;1.70;0.50;;;23.30;45.90;;;;;;5047297;28;20312;-48
2022/09/16 01:24:33;;;;;;;1.73;0.55;;;23.30;45.90;;;;;;5044093;28;20036;-54
2022/09/16 01:28:04;;;;;;;2.45;0.70;;;23.20;45.90;;;;;;5028544;28;20176;-52
2022/09/16 01:30:42;;;;;;;1.55;0.40;;;23.20;45.90;;;;;;5020758;28;20073;-50
2022/09/16 01:33:24;;;;;;;1.33;0.45;;;23.20;46.00;;;;;;5021638;28;20034;-53
2022/09/16 01:36:05;;;;;;;1.67;0.57;;;23.20;46.10;;;;;;5036619;28;20098;-51
2022/09/16 01:38:40;;;;;;;1.85;0.55;;;23.20;46.10;;;;;;5044140;28;20447;-50
2022/09/16 01:41:41;;;;;;;1.02;0.52;;;23.20;46.10;;;;;;5049057;28;20020;-50
2022/09/16 01:44:18;;;;;;;0.88;0.40;;;23.20;46.20;;;;;;5046848;28;20173;-47
2022/09/16 01:47:04;;;;;;;1.13;0.40;;;23.20;46.20;;;;;;5051246;28;20036;-49
2022/09/16 01:49:50;;;;;;;0.30;0.30;;;23.20;46.30;;;;;;5049161;28;20041;-50
2022/09/16 01:52:31;;;;;;;0.65;0.30;;;23.20;46.30;;;;;;5042410;28;20052;-52
2022/09/16 01:55:03;;;;;;;1.65;0.60;;;23.20;46.40;;;;;;5043749;28;20037;-49
2022/09/16 01:57:57;;;;;;;1.35;0.50;;;23.10;46.30;;;;;;5042731;28;20041;-53
2022/09/16 02:00:23;;;;;;;0.93;0.40;;;23.20;46.40;;;;;;5048140;28;20037;-52
2022/09/16 02:03:06;;;;;;;0.80;0.30;;;23.20;46.40;;;;;;5050467;28;20082;-50
2022/09/16 02:06:00;;;;;;;1.33;0.47;;;23.20;46.40;;;;;;5049737;28;20087;-49
2022/09/16 02:08:37;;;;;;;0.73;0.30;;;23.20;46.40;;;;;;5045197;28;20053;-52
2022/09/16 02:11:07;;;;;;;1.42;0.50;;;23.20;46.40;;;;;;5049408;28;20057;-49
2022/09/16 02:13:42;;;;;;;1.33;0.50;;;23.10;46.40;;;;;;5045182;28;20025;-51
2022/09/16 02:16:16;;;;;;;2.63;0.60;;;23.20;46.40;;;;;;5046069;28;20462;-52
2022/09/16 02:18:48;;;;;;;1.27;0.35;;;23.20;46.50;;;;;;5043774;28;20406;-52
2022/09/16 02:21:16;;;;;;;1.67;0.70;;;23.10;46.40;;;;;;5042540;28;20122;-51
2022/09/16 02:23:49;;;;;;;1.00;0.30;;;23.20;46.50;;;;;;5041521;28;20163;-50
2022/09/16 02:26:19;;;;;;;1.27;0.40;;;23.10;46.40;;;;;;5049079;28;20406;-50
2022/09/16 02:28:49;;;;;;;1.63;0.52;;;23.10;46.50;;;;;;5047035;28;20029;-49
2022/09/16 02:31:19;;;;;;;1.25;0.55;;;23.10;46.50;;;;;;5049613;28;20040;-52
2022/09/16 02:33:52;;;;;;;1.33;0.50;;;23.10;46.50;;;;;;5048241;28;20028;-50
2022/09/16 02:36:21;;;;;;;0.95;0.43;;;23.10;46.50;;;;;;5048873;28;20040;-52
2022/09/16 02:38:53;;;;;;;1.08;0.60;;;23.10;46.50;;;;;;5045079;28;20356;-50
2022/09/16 02:41:19;;;;;;;0.95;0.30;;;23.10;46.50;;;;;;5048714;28;20079;-51
2022/09/16 02:43:45;;;;;;;1.55;0.47;;;23.10;46.50;;;;;;5041050;28;20021;-52
2022/09/16 02:46:38;;;;;;;1.48;0.60;;;23.10;46.50;;;;;;5049656;28;20440;-52
2022/09/16 02:49:17;;;;;;;2.25;0.57;;;23.10;46.50;;;;;;5041443;28;20483;-51
2022/09/16 02:51:49;;;;;;;0.95;0.40;;;23.10;46.50;;;;;;5043578;28;20056;-50
2022/09/16 02:54:25;;;;;;;0.77;0.40;;;23.10;46.50;;;;;;5045576;28;20025;-48
2022/09/16 02:56:53;;;;;;;0.47;0.30;;;23.10;46.50;;;;;;5044928;28;20172;-50
2022/09/16 02:59:20;;;;;;;1.13;0.40;;;23.10;46.50;;;;;;5043977;28;20112;-51
2022/09/16 03:01:46;;;;;;;0.98;0.38;;;23.10;46.50;;;;;;5045312;28;20033;-51
2022/09/16 03:04:16;;;;;;;2.00;0.50;;;23.10;46.50;;;;;;5046636;28;20364;-53
2022/09/16 03:06:42;;;;;;;1.45;0.40;;;23.10;46.50;;;;;;5045419;28;20352;-52
2022/09/16 03:09:11;;;;;;;1.85;0.52;;;23.10;46.60;;;;;;5045455;28;20321;-51
2022/09/16 03:12:04;;;;;;;1.60;0.40;;;23.10;46.60;;;;;;5049106;28;20076;-48
2022/09/16 03:14:29;;;;;;;1.48;0.60;;;23.10;46.50;;;;;;5045408;28;20040;-50
2022/09/16 03:17:14;;;;;;;1.00;0.47;;;23.10;46.60;;;;;;5043615;28;20021;-52
2022/09/16 03:19:46;;;;;;;1.10;0.50;;;23.10;46.50;;;;;;5046860;28;20038;-50
2022/09/16 03:22:26;;;;;;;0.77;0.30;;;23.10;46.60;;;;;;5049018;28;20039;-50
2022/09/16 03:25:29;;;;;;;0.70;0.32;;;23.10;46.50;;;;;;5045333;28;20091;-49
2022/09/16 03:27:58;;;;;;;1.15;0.50;;;23.00;46.50;;;;;;5048188;28;20036;-54
2022/09/16 03:30:24;;;;;;;0.98;0.43;;;23.00;46.50;;;;;;5044219;28;20051;-53
2022/09/16 03:32:57;;;;;;;1.05;0.40;;;23.00;46.50;;;;;;5040526;28;20091;-54
2022/09/16 03:35:28;;;;;;;1.15;0.40;;;23.00;46.50;;;;;;5039503;28;20040;-50
2022/09/16 03:37:57;;;;;;;1.70;0.40;;;23.00;46.50;;;;;;5048670;28;20044;-53
2022/09/16 03:40:23;;;;;;;1.58;0.40;;;23.00;46.50;;;;;;5038920;28;20091;-49
2022/09/16 03:42:49;;;;;;;0.95;0.40;;;23.00;46.50;;;;;;5045948;28;20037;-48
2022/09/16 03:45:18;;;;;;;2.05;0.55;;;23.00;46.50;;;;;;5044512;28;20440;-51
2022/09/16 03:47:46;;;;;;;0.70;0.40;;;23.00;46.50;;;;;;5045941;28;20033;-49
2022/09/16 03:50:13;;;;;;;2.35;0.52;;;23.00;46.50;;;;;;5043384;28;20039;-49
2022/09/16 03:52:39;;;;;;;1.70;0.60;;;23.00;46.50;;;;;;5045610;28;20047;-48
2022/09/16 03:55:06;;;;;;;1.05;0.38;;;23.00;46.50;;;;;;5043247;28;20025;-51
2022/09/16 03:57:32;;;;;;;0.85;0.38;;;23.00;46.50;;;;;;5043407;28;20055;-51
2022/09/16 03:59:58;;;;;;;1.67;0.65;;;23.00;46.50;;;;;;5046360;28;20039;-48
2022/09/16 04:02:24;;;;;;;1.75;0.40;;;23.00;46.50;;;;;;5045864;28;20520;-49
2022/09/16 04:04:51;;;;;;;1.33;0.43;;;23.00;46.50;;;;;;5043894;28;20100;-47
2022/09/16 04:07:16;;;;;;;1.23;0.30;;;23.00;46.50;;;;;;5047172;28;20058;-51
2022/09/16 04:09:42;;;;;;;1.08;0.40;;;23.00;46.50;;;;;;5040642;28;20396;-51
2022/09/16 04:12:08;;;;;;;1.15;0.35;;;23.00;46.50;;;;;;5046297;28;20107;-51
2022/09/16 04:14:35;;;;;;;0.40;0.30;;;23.00;46.50;;;;;;5045184;28;20021;-53
2022/09/16 04:17:01;;;;;;;1.00;0.40;;;23.00;46.50;;;;;;5044042;28;20355;-49
2022/09/16 04:19:27;;;;;;;1.13;0.40;;;23.00;46.50;;;;;;5044643;28;20080;-49
2022/09/16 04:21:53;;;;;;;1.23;0.40;;;23.00;46.60;;;;;;5043264;28;20364;-50
2022/09/16 04:24:19;;;;;;;1.55;0.40;;;23.00;46.60;;;;;;5039973;28;20025;-50
2022/09/16 04:26:45;;;;;;;0.55;0.30;;;23.00;46.60;;;;;;5045909;28;20428;-48
2022/09/16 04:29:11;;;;;;;0.85;0.40;;;22.90;46.60;;;;;;5047184;28;20034;-52
2022/09/16 04:31:37;;;;;;;1.67;0.50;;;22.90;46.60;;;;;;5039742;28;20047;-50
2022/09/16 04:34:03;;;;;;;1.83;0.65;;;22.90;46.60;;;;;;5040925;28;20029;-48
2022/09/16 04:36:30;;;;;;;0.90;0.30;;;22.90;46.60;;;;;;5041984;28;20021;-50
2022/09/16 04:38:56;;;;;;;0.73;0.35;;;23.00;46.70;;;;;;5041052;28;20098;-50
2022/09/16 04:41:24;;;;;;;0.70;0.45;;;22.90;46.60;;;;;;5043165;28;20440;-48
2022/09/16 04:43:52;;;;;;;1.40;0.40;;;22.90;46.70;;;;;;5039538;28;20028;-50
2022/09/16 04:46:18;;;;;;;1.05;0.40;;;22.90;46.70;;;;;;5039947;28;20025;-53
2022/09/16 04:48:48;;;;;;;0.88;0.40;;;22.90;46.70;;;;;;5042491;28;20637;-51
2022/09/16 04:51:14;;;;;;;0.93;0.40;;;22.90;46.70;;;;;;5037658;28;20044;-48
2022/09/16 04:53:42;;;;;;;0.63;0.30;;;22.90;46.70;;;;;;5039639;28;20033;-50
2022/09/16 04:56:14;;;;;;;0.98;0.40;;;22.90;46.70;;;;;;5040743;28;20033;-49
2022/09/16 04:58:42;;;;;;;1.05;0.32;;;22.90;46.60;;;;;;5044127;28;20033;-50
2022/09/16 05:01:11;;;;;;;1.63;0.50;;;22.90;46.60;;;;;;5038744;28;20037;-50
2022/09/16 05:03:45;;;;;;;2.35;0.40;;;22.90;46.70;;;;;;5048706;28;20025;-50
2022/09/16 05:06:18;;;;;;;1.60;0.43;;;22.90;46.60;;;;;;5043834;28;20028;-51
2022/09/16 05:08:44;;;;;;;0.63;0.30;;;22.90;46.60;;;;;;5043892;28;20025;-53
2022/09/16 05:11:13;;;;;;;0.77;0.47;;;22.90;46.60;;;;;;5049066;28;20060;-52
2022/09/16 05:13:39;;;;;;;0.70;0.40;;;22.90;46.60;;;;;;5047432;28;20039;-53
2022/09/16 05:16:10;;;;;;;0.95;0.30;;;22.90;46.60;;;;;;5050225;28;20037;-52
2022/09/16 05:18:37;;;;;;;0.93;0.47;;;22.90;46.60;;;;;;5047997;28;20029;-50
2022/09/16 05:21:05;;;;;;;1.52;0.60;;;22.90;46.60;;;;;;5047783;28;20032;-49
2022/09/16 05:23:32;;;;;;;0.88;0.25;;;22.90;46.60;;;;;;5047918;28;20036;-54
2022/09/16 05:26:05;;;;;;;2.97;0.40;;;22.90;46.60;;;;;;5046370;28;20057;-49
2022/09/16 05:28:31;;;;;;;0.50;0.30;;;22.90;46.60;;;;;;5049124;28;20047;-49
2022/09/16 05:31:14;;;;;;;0.65;0.30;;;22.80;46.50;;;;;;5048541;28;20044;-49
2022/09/16 05:33:43;;;;;;;0.70;0.32;;;22.90;46.60;;;;;;5040197;28;20041;-51
2022/09/16 05:36:15;;;;;;;1.13;0.43;;;22.80;46.50;;;;;;5047386;28;20340;-54
2022/09/16 05:38:41;;;;;;;0.90;0.40;;;22.80;46.50;;;;;;5048412;28;20372;-53
2022/09/16 05:41:10;;;;;;;0.88;0.40;;;22.80;46.50;;;;;;5045594;28;20036;-54
2022/09/16 05:43:37;;;;;;;2.35;0.40;;;22.80;46.50;;;;;;5046037;28;20040;-55
2022/09/16 05:46:04;;;;;;;1.05;0.32;;;22.80;46.50;;;;;;5049802;28;20029;-53
2022/09/16 05:48:30;;;;;;;0.88;0.40;;;22.80;46.40;;;;;;5047554;28;20025;-52
2022/09/16 05:50:59;;;;;;;1.55;0.70;;;22.90;46.50;;;;;;5046412;28;20048;-54
2022/09/16 05:53:26;;;;;;;0.82;0.32;;;22.80;46.40;;;;;;5045954;28;20036;-50
2022/09/16 05:55:59;;;;;;;0.80;0.35;;;22.80;46.40;;;;;;5047626;28;20029;-52
2022/09/16 05:58:27;;;;;;;2.20;0.50;;;22.80;46.40;;;;;;5044085;28;20034;-50
2022/09/16 06:01:04;;;;;;;0.70;0.30;;;22.80;46.30;;;;;;5042976;28;20025;-52
2022/09/16 06:03:31;;;;;;;1.23;0.43;;;22.80;46.30;;;;;;5038107;28;20029;-52
2022/09/16 06:06:04;;;;;;;0.82;0.20;;;22.80;46.30;;;;;;5049237;28;20432;-53
2022/09/16 06:08:32;;;;;;;1.60;0.40;;;22.80;46.30;;;;;;5038939;28;20094;-51
2022/09/16 06:11:06;;;;;;;3.50;0.63;;;22.80;46.90;;;;;;5050648;28;20029;-51
2022/09/16 06:13:33;;;;;;;1.30;0.43;;;22.80;46.30;;;;;;5042808;28;20036;-50
2022/09/16 06:16:00;;;;;;;1.40;0.40;;;22.80;46.30;;;;;;5044041;28;20041;-48
2022/09/16 06:18:28;;;;;;;1.30;0.40;;;22.80;46.30;;;;;;5037967;28;20029;-52
2022/09/16 06:20:54;;;;;;;4.43;0.63;;;22.90;46.40;;;;;;5047577;28;20044;-50
2022/09/16 06:23:21;;;;;;;0.80;0.25;;;22.80;46.40;;;;;;5041745;28;20022;-49
2022/09/16 06:25:48;;;;;;;1.85;0.32;;;22.80;46.40;;;;;;5032474;28;20036;-49
2022/09/16 06:28:14;;;;;;;1.63;0.50;;;22.80;46.40;;;;;;5035907;28;20056;-59
2022/09/16 06:30:40;;;;;;;0.47;0.40;;;22.80;46.40;;;;;;5037773;28;20102;-53
2022/09/16 06:33:06;;;;;;;4.53;0.60;;;22.90;46.40;;;;;;5039431;28;20163;-55
2022/09/16 06:35:34;;;;;;;2.40;0.68;;;22.90;46.40;;;;;;5037233;28;20021;-52
2022/09/16 06:38:01;;;;;;;2.03;0.63;;;22.80;46.20;;;;;;5037834;28;20231;-52
2022/09/16 06:40:27;;;;;;;2.55;0.60;;;22.80;46.20;;;;;;5049563;28;20020;-52
2022/09/16 06:42:53;;;;;;;2.05;0.50;;;22.80;46.10;;;;;;5047711;28;20032;-51
2022/09/16 06:45:21;;;;;;;1.00;0.50;;;22.90;46.20;;;;;;5048086;28;20025;-53
2022/09/16 06:47:46;;;;;;;1.92;0.50;;;22.80;46.10;;;;;;5048186;28;20388;-53
2022/09/16 06:50:15;;;;;;;2.42;0.50;;;22.80;46.10;;;;;;5046894;28;20043;-50
2022/09/16 06:52:41;;;;;;;1.75;0.50;;;22.90;46.10;;;;;;5039096;28;20037;-54
2022/09/16 06:55:07;;;;;;;1.52;0.70;;;22.80;46.00;;;;;;5044135;28;20428;-53
2022/09/16 06:57:33;;;;;;;3.05;0.88;;;22.80;46.00;;;;;;5047472;28;20171;-48
2022/09/16 06:59:58;;;;;;;3.42;0.60;;;22.90;46.10;;;;;;5045766;28;20443;-52
2022/09/16 07:02:25;;;;;;;1.88;0.60;;;22.90;46.00;;;;;;5056147;28;20039;-53
2022/09/16 07:04:51;;;;;;;2.00;0.73;;;22.80;46.00;;;;;;5052012;28;20163;-50
2022/09/16 07:07:16;;;;;;;2.15;1.05;;;22.90;46.00;;;;;;5047213;28;20136;-53
2022/09/16 07:09:42;;;;;;;3.75;0.80;;;22.90;46.00;;;;;;5055956;28;20036;-51
2022/09/16 07:12:09;;;;;;;2.92;0.93;;;22.90;46.00;;;;;;5055310;28;20049;-54
2022/09/16 07:14:35;;;;;;;2.00;0.60;;;22.90;46.00;;;;;;5043597;28;20111;-53
2022/09/16 07:17:01;;;;;;;3.70;1.02;;;22.90;46.00;;;;;;5040509;28;20033;-56
2022/09/16 07:19:27;;;;;;;5.43;1.25;;;22.90;46.10;;;;;;5045961;28;20358;-55
2022/09/16 07:21:53;;;;;;;4.15;0.93;;;22.90;46.10;;;;;;5043950;28;20033;-54
2022/09/16 07:24:19;;;;;;;2.97;0.90;;;22.90;46.10;;;;;;5047803;28;20031;-53
2022/09/16 07:26:45;;;;;;;2.85;0.90;;;22.90;46.10;;;;;;5040994;28;20021;-51
2022/09/16 07:29:15;;;;;;;2.92;0.95;;;22.90;46.10;;;;;;5045650;28;20035;-52
2022/09/16 07:31:41;;;;;;;3.25;1.02;;;22.90;46.10;;;;;;5044353;28;20085;-54
2022/09/16 07:34:09;;;;;;;3.67;1.10;;;22.90;46.10;;;;;;5046568;28;20074;-53
2022/09/16 07:36:44;;;;;;;2.92;0.90;;;22.90;46.10;;;;;;5041820;28;20029;-51
2022/09/16 07:39:12;;;;;;;3.65;0.95;;;22.90;46.10;;;;;;5045087;28;20024;-52
2022/09/16 07:41:40;;;;;;;3.05;1.05;;;22.90;46.00;;;;;;5038071;28;20028;-50
2022/09/16 07:44:08;;;;;;;5.47;1.00;;;22.90;46.00;;;;;;5043112;28;20315;-50
2022/09/16 07:46:36;;;;;;;2.25;0.82;;;22.90;46.00;;;;;;5043085;28;20044;-52
2022/09/16 07:49:05;;;;;;;3.30;0.93;;;22.90;46.00;;;;;;5038916;28;20079;-47
2022/09/16 07:51:32;;;;;;;2.97;0.90;;;22.90;45.90;;;;;;5045066;28;20036;-50
2022/09/16 07:54:04;;;;;;;2.40;0.80;;;22.90;45.90;;;;;;5045974;28;20060;-53
2022/09/16 07:56:38;;;;;;;2.72;0.98;;;22.90;45.90;;;;;;5043449;28;20033;-51
2022/09/16 07:59:06;;;;;;;2.58;0.70;;;22.90;45.90;;;;;;5038549;28;20318;-51
2022/09/16 08:01:32;;;;;;;2.88;0.80;;;22.90;45.80;;;;;;5045970;28;20039;-53
2022/09/16 08:04:00;;;;;;;2.25;0.70;;;22.90;45.80;;;;;;5043827;28;20029;-54
2022/09/16 08:06:28;;;;;;;2.30;0.68;;;22.90;45.80;;;;;;5034181;28;20037;-53
2022/09/16 08:08:57;;;;;;;2.10;0.82;;;22.90;45.70;;;;;;5036198;28;20044;-52
2022/09/16 08:11:23;;;;;;;2.70;0.90;;;23.00;45.80;;;;;;5041903;28;20124;-51
2022/09/16 08:13:49;;;;;;;1.20;0.63;;;22.90;45.70;;;;;;5034565;28;20120;-56
2022/09/16 08:16:17;;;;;;;2.00;0.88;;;22.90;45.70;;;;;;5028776;28;20360;-50
2022/09/16 08:18:46;;;;;;;2.58;0.70;;;23.00;45.80;;;;;;5038519;28;20136;-53
2022/09/16 08:21:19;;;;;;;3.83;0.73;;;23.00;45.80;;;;;;5035769;28;20029;-49
2022/09/16 08:23:45;;;;;;;4.55;0.70;;;23.00;45.60;;;;;;5055124;28;20087;-49
2022/09/16 08:26:12;;;;;;;2.60;0.68;;;23.00;45.50;;;;;;5045401;28;20375;-50
2022/09/16 08:28:40;;;;;;;3.10;0.70;;;23.00;45.40;;;;;;5041658;28;20036;-51
2022/09/16 08:31:07;;;;;;;2.05;0.50;;;23.00;45.20;;;;;;5045641;28;20056;-50
2022/09/16 08:33:32;;;;;;;3.92;0.70;;;23.00;45.10;;;;;;5059266;28;20074;-53
2022/09/16 08:36:23;;;;;;;1.70;0.73;;;23.00;45.10;;;;;;5054355;28;20029;-50
2022/09/16 08:38:55;;;;;;;2.05;0.77;;;23.00;45.00;;;;;;5045646;28;20140;-49
2022/09/16 08:41:59;;;;;;;2.47;0.70;;;23.00;45.00;;;;;;5046629;28;20091;-54
2022/09/16 08:45:18;;;;;;;2.78;0.70;;;23.00;44.90;;;;;;5044099;28;20481;-49
2022/09/16 08:48:08;;;;;;;2.67;0.70;;;23.00;44.80;;;;;;5004657;28;20120;-50
2022/09/16 08:50:38;;;;;;;1.83;0.70;;;23.00;44.70;;;;;;5004575;28;20120;-53
2022/09/16 08:53:38;;;;;;;2.35;0.50;;;23.00;44.70;;;;;;5034538;28;20049;-52
2022/09/16 08:56:11;;;;;;;1.70;0.60;;;23.00;44.60;;;;;;5033018;28;20060;-50
2022/09/16 08:58:44;;;;;;;2.38;0.45;;;23.00;44.60;;;;;;5042566;28;20040;-50
2022/09/16 09:01:34;;;;;;;1.95;0.93;;;23.00;44.50;;;;;;5043946;28;20103;-51
2022/09/16 09:04:01;;;;;;;1.80;0.70;;;23.00;44.40;;;;;;5043620;28;20030;-50
2022/09/16 09:06:45;;;;;;;1.52;0.68;;;23.00;44.40;;;;;;5046526;28;20447;-50
2022/09/16 09:09:34;;;;;;;3.53;0.65;;;23.00;44.40;;;;;;5049303;28;20025;-52
2022/09/16 09:12:13;;;;;;;1.65;0.50;;;23.00;44.30;;;;;;5044605;28;20065;-50
2022/09/16 09:14:44;;;;;;;2.28;0.60;;;23.10;44.20;;;;;;5046410;28;21772;-49
2022/09/16 09:17:27;;;;;;;1.05;0.50;;;23.00;44.10;;;;;;5044931;28;20022;-51
2022/09/16 09:20:19;;;;;;;1.27;0.60;;;23.00;44.00;;;;;;5047318;28;20432;-53
2022/09/16 09:23:11;;;;;;;2.00;0.55;;;23.00;43.80;;;;;;5077534;28;20021;-49
2022/09/16 09:26:07;;;;;;;1.08;0.50;;;23.10;43.70;;;;;;5046400;28;20507;-52
2022/09/16 09:29:05;;;;;;;1.45;0.63;;;23.00;43.50;;;;;;5065683;28;20322;-55
2022/09/16 09:31:41;;;;;;;1.52;0.50;;;23.10;43.40;;;;;;5024390;28;20093;-52
2022/09/16 09:34:25;;;;;;;1.63;0.50;;;23.10;43.40;;;;;;5042755;28;20034;-55
2022/09/16 09:37:17;;;;;;;4.90;1.17;;;23.10;43.60;;;;;;5044060;28;20029;-52
2022/09/16 09:40:22;;;;;;;2.97;0.50;;;23.10;43.60;;;;;;5045944;28;20118;-52
2022/09/16 09:42:56;;;;;;;2.25;0.88;;;23.10;43.50;;;;;;5040925;28;20091;-52
2022/09/16 09:45:32;;;;;;;2.13;0.65;;;23.10;43.40;;;;;;5043278;28;20029;-51
2022/09/16 09:48:00;;;;;;;3.58;0.75;;;23.10;43.50;;;;;;5040701;28;20040;-54
2022/09/16 09:50:43;;;;;;;3.33;0.50;;;23.10;43.80;;;;;;5042640;28;20104;-49
2022/09/16 09:53:28;;;;;;;3.53;0.60;;;23.10;44.10;;;;;;5042201;28;20102;-51
2022/09/16 09:56:14;;;;;;;;;;;23.10;44.30;;;;;;5039784;28;20059;-50
2022/09/16 09:58:50;;;;;;;1.80;0.60;;;23.10;44.40;;;;;;5045867;28;19924;-52
2022/09/16 10:01:17;;;;;;;3.53;0.77;;;23.20;44.60;;;;;;5039370;28;20021;-55
2022/09/16 10:03:44;;;;;;;1.38;0.60;;;23.20;44.70;;;;;;5042280;28;20036;-52
2022/09/16 10:06:11;;;;;;;2.75;0.85;;;23.20;44.70;;;;;;5046600;28;20120;-49
2022/09/16 10:08:47;;;;;;;1.85;0.75;;;23.20;44.70;;;;;;5042693;28;20025;-55
2022/09/16 10:11:25;;;;;;;2.45;0.80;;;23.30;44.70;;;;;;5046277;28;20033;-51
2022/09/16 10:14:00;;;;;;;1.77;0.68;;;23.30;44.70;;;;;;5043598;28;20025;-56
2022/09/16 10:16:38;;;;;;;2.38;0.55;;;23.30;44.70;;;;;;5040315;28;20116;-51
2022/09/16 10:19:19;;;;;;;1.70;0.68;;;23.30;44.70;;;;;;5041020;28;20091;-48
2022/09/16 10:21:53;;;;;;;2.67;0.60;;;23.30;44.60;;;;;;5039609;28;20449;-49
2022/09/16 10:24:25;;;;;;;1.23;0.50;;;23.40;44.60;;;;;;5043603;28;20117;-51
2022/09/16 10:26:51;;;;;;;2.58;0.60;;;23.40;44.60;;;;;;5044513;28;20033;-52
2022/09/16 10:29:20;;;;;;;1.73;0.63;;;23.40;44.50;;;;;;5045472;28;20021;-52
2022/09/16 10:31:46;;;;;;;1.35;0.60;;;23.50;44.50;;;;;;5045334;28;20037;-52
2022/09/16 10:34:18;;;;;;;3.60;0.60;;;23.40;44.40;;;;;;5046048;28;20104;-48
2022/09/16 10:36:44;;;;;;;1.35;0.50;;;23.50;44.40;;;;;;5041249;28;20029;-54
2022/09/16 10:39:22;;;;;;;1.48;0.55;;;23.50;44.30;;;;;;5045866;28;20400;-50
2022/09/16 10:41:49;;;;;;;1.00;0.40;;;23.60;44.20;;;;;;5043832;28;20104;-53
2022/09/16 10:44:20;;;;;;;2.53;0.55;;;23.60;44.20;;;;;;5040464;28;20036;-50
2022/09/16 10:47:18;;;;;;;2.67;0.88;;;23.60;44.20;;;;;;5045896;28;20117;-51
2022/09/16 10:49:50;;;;;;;1.77;0.40;;;23.60;44.10;;;;;;5026278;28;20060;-52
2022/09/16 10:52:20;;;;;;;2.22;0.50;;;23.60;44.10;;;;;;5044467;28;20128;-55
2022/09/16 10:54:46;;;;;;;1.55;0.50;;;23.60;44.00;;;;;;5044034;28;20357;-49
2022/09/16 10:57:42;;;;;;;4.97;0.70;;;23.60;43.90;;;;;;5035710;28;20049;-52
2022/09/16 11:00:18;;;;;;;3.38;0.73;;;23.70;43.80;;;;;;5034557;28;20033;-49
2022/09/16 11:02:58;;;;;;;2.28;0.50;;;23.70;43.50;;;;;;5039751;28;20368;-53
2022/09/16 11:05:24;;;;;;;1.95;0.88;;;23.70;43.30;;;;;;5039410;28;20052;-50
2022/09/16 11:08:22;;;;;;;2.30;0.40;;;23.70;43.10;;;;;;5056924;28;20045;-54
2022/09/16 11:11:09;;;;;;;2.20;0.63;;;23.70;42.90;;;;;;5032006;28;20041;-53
2022/09/16 11:14:11;;;;;;;2.08;0.50;;;23.70;42.60;;;;;;5027471;28;20091;-54
2022/09/16 11:17:10;;;;;;;1.27;0.43;;;23.70;42.40;;;;;;5032442;28;20087;-50
2022/09/16 11:19:52;;;;;;;3.65;0.60;;;23.70;42.30;;;;;;5037669;28;20464;-53
2022/09/16 11:22:41;;;;;;;1.38;0.47;;;23.70;42.10;;;;;;5034571;28;20094;-52
2022/09/16 11:25:36;;;;;;;1.30;0.30;;;23.70;42.10;;;;;;5031004;28;20026;-52
2022/09/16 11:28:21;;;;;;;0.98;0.30;;;23.70;42.10;;;;;;5045415;28;20029;-52
2022/09/16 11:30:56;;;;;;;1.08;0.47;;;23.70;42.00;;;;;;5032852;28;20025;-51
2022/09/16 11:33:35;;;;;;;1.60;0.47;;;23.70;41.90;;;;;;5037620;28;20620;-54
2022/09/16 11:36:13;;;;;;;1.40;0.40;;;23.70;42.00;;;;;;5035371;28;20057;-51
2022/09/16 11:39:30;;;;;;;2.38;0.50;;;23.70;42.00;;;;;;5035675;28;20105;-51
2022/09/16 11:42:11;;;;;;;4.30;0.60;;;23.70;41.90;;;;;;5022182;28;20172;-53
2022/09/16 11:44:48;;;;;;;1.00;0.70;;;23.70;41.80;;;;;;5036500;28;20100;-52
2022/09/16 11:47:35;;;;;;;1.20;0.50;;;23.70;41.70;;;;;;5015918;28;20040;-55
2022/09/16 11:50:31;;;;;;;1.63;0.43;;;23.70;41.50;;;;;;5031115;28;20037;-53
2022/09/16 11:53:16;;;;;;;0.88;0.30;;;23.70;41.40;;;;;;5039117;28;20041;-50
2022/09/16 11:55:56;;;;;;;1.13;0.38;;;23.70;41.30;;;;;;5055355;28;20036;-53
2022/09/16 11:58:37;;;;;;;1.20;0.40;;;23.70;41.10;;;;;;5055389;28;20056;-54
2022/09/16 12:01:14;;;;;;;2.53;0.50;;;23.60;40.90;;;;;;5054997;28;20068;-52
2022/09/16 12:03:50;;;;;;;1.23;0.47;;;23.70;40.90;;;;;;5055051;28;20029;-53
2022/09/16 12:06:21;;;;;;;2.30;0.77;;;23.60;40.70;;;;;;5050616;28;20033;-51
2022/09/16 12:08:47;;;;;;;2.67;0.50;;;23.60;40.40;;;;;;5052862;28;20053;-52
2022/09/16 12:11:35;;;;;;;0.77;0.40;;;23.60;40.30;;;;;;5054726;28;20068;-52
2022/09/16 12:14:19;;;;;;;1.08;0.50;;;23.60;40.10;;;;;;5051336;28;20397;-48
2022/09/16 12:16:48;;;;;;;1.55;0.60;;;23.60;39.90;;;;;;5055700;28;20041;-50
2022/09/16 12:19:27;;;;;;;3.80;0.90;;;23.70;39.90;;;;;;5054609;28;20033;-51
2022/09/16 12:22:03;;;;;;;1.35;0.40;;;23.70;39.80;;;;;;5050427;28;20036;-48
2022/09/16 12:24:34;;;;;;;2.15;0.50;;;23.70;39.70;;;;;;5055056;28;20032;-53
2022/09/16 12:27:13;;;;;;;2.45;0.95;;;23.60;39.50;;;;;;5054303;28;20075;-49
2022/09/16 12:29:55;;;;;;;1.00;0.50;;;23.70;39.40;;;;;;5051356;28;20033;-49
2022/09/16 12:32:44;;;;;;;3.00;0.63;;;23.70;39.40;;;;;;5054386;28;20051;-50
2022/09/16 12:35:16;;;;;;;1.67;0.40;;;23.60;39.20;;;;;;5054541;28;20033;-50
2022/09/16 12:37:47;;;;;;;1.60;0.60;;;23.70;39.20;;;;;;5054826;28;20120;-52
2022/09/16 12:40:26;;;;;;;1.83;0.60;;;23.70;39.10;;;;;;5054872;28;20030;-52
2022/09/16 12:43:25;;;;;;;1.08;0.50;;;23.60;39.10;;;;;;5049337;28;20112;-54
2022/09/16 12:46:08;;;;;;;1.40;0.35;;;23.70;39.10;;;;;;5054717;28;20419;-51
2022/09/16 12:49:02;;;;;;;1.30;0.50;;;23.70;39.10;;;;;;5054827;28;20033;-50
2022/09/16 12:51:42;;;;;;;1.00;0.45;;;23.70;39.20;;;;;;5034193;28;20107;-51
2022/09/16 12:54:29;;;;;;;1.58;0.40;;;23.70;39.30;;;;;;5047822;28;20336;-52
2022/09/16 12:57:20;;;;;;;1.42;0.40;;;23.70;39.40;;;;;;5054767;28;20029;-54
2022/09/16 13:00:00;;;;;;;2.58;0.60;;;23.70;39.50;;;;;;5054315;28;20033;-55
2022/09/16 13:02:35;;;;;;;1.75;0.70;;;23.70;39.60;;;;;;5034793;28;20048;-50
2022/09/16 13:05:22;;;;;;;2.15;0.43;;;23.70;39.70;;;;;;5029487;28;20071;-59
2022/09/16 13:07:52;;;;;;;1.00;0.40;;;23.70;40.40;;;;;;5033018;28;20472;-61
2022/09/16 13:10:31;;;;;;;1.80;0.45;;;23.70;40.80;;;;;;5031789;28;20496;-62
2022/09/16 13:13:01;;;;;;;1.55;0.43;;;23.70;41.10;;;;;;5033437;28;20038;-60
2022/09/16 13:15:38;;;;;;;1.58;0.45;;;23.80;41.20;;;;;;5033372;28;20021;-56
2022/09/16 13:18:26;;;;;;;1.27;0.55;;;23.90;41.20;;;;;;5035587;28;20048;-58
2022/09/16 13:21:01;;;;;;;2.17;0.60;;;24.00;41.10;;;;;;5037149;28;20102;-64
2022/09/16 13:23:32;;;;;;;1.17;0.60;;;24.10;40.90;;;;;;5037063;28;20041;-62